windsock image

Welcome to Bigfield Strip.

anemometer image
     

 Help for dials.  
 
Local Met:

Wind:   
10 Min average:  
318 ° / 9.5 kts (14.8)
317° / 8.6

Temperature:  
4.5°C C
Dew Point:  
0.8°C C
QNH:  
Trend:  
1018.7 mb mb
+0.7mb/hr
BigField Strip. This image updates approximately every minute, it can have a two minute delay.  
 

Humidity:  
77 %
Sunrise:   05:42z
Sunset:   18:35z
Updated:  
  UTC
 
   More met info, trends, radar, history etc. available here   

LUTON Metar   EGGW 312320Z 28015KT CAVOK 04/M00 Q1017
 
  TAF   2015/03/31 18:15 TAF EGGW 311701Z 3118/0118 28017KT 9999 SCT030 TEMPO 3118/0116 29020G30KT PROB40 TEMPO 3118/3121 5000 SHRA BECMG 0115/0118 20012KT PROB40 TEMPO 0115/0118 7000 -RADZ BKN010
 
BENSON Metar   EGUB 312250Z 27012KT CAVOK 05/01 Q1019 BLU
 
  TAF   2015/03/31 19:24 TAF TAF AMD EGUB 311914Z 3119/3123 28018G30KT 9999 SCT040 TEMPO 3119/3122 -SHRA SCT030CB
 
Big Field view 1 icon   Big Field view 2 icon   Big Field view 3 icon   Chart AL3a in PDF icon   Chart AL3a in Word icon

WARNING:
This information is provided by the Airstrip unofficial weather station, DO NOT depend on the data provided here for any purpose.
This page is updated for latest Metars & TAF's every 5 minutes. Refresh the browser to check for the lastest.
Page designed for a minimum browser size of 1024x768.
© Copyright 2015 BigField Strip. This page auto generated 23:46 UTC - 31/03/2015   Contact Us
Valid HTML 4.01 Transitional     Windows uptime: 1 Days 21 Hours 14 Minutes 4 Seconds    WD started: 02:38 30/03/15    Free memory: 1505MB     Valid CSS!